createdAt,value
2023-02-03T00:01:02.549Z,6.40
2023-02-03T00:03:05.000Z,8.02
2023-02-03T00:05:07.621Z,7.40
2023-02-03T00:07:12.517Z,4.13
2023-02-03T00:09:15.560Z,5.68
2023-02-03T00:11:17.542Z,6.55
2023-02-03T00:13:19.508Z,4.72
2023-02-03T00:15:23.405Z,4.50
2023-02-03T00:17:25.417Z,3.47
2023-02-03T00:19:27.231Z,3.83
2023-02-03T00:21:29.211Z,3.80
2023-02-03T00:23:32.332Z,4.53
2023-02-03T00:25:34.669Z,3.88
2023-02-03T00:27:36.733Z,3.08
2023-02-03T00:29:38.575Z,5.10
2023-02-03T00:31:40.529Z,5.65
2023-02-03T00:33:42.460Z,4.88
2023-02-03T00:35:44.344Z,4.93
2023-02-03T00:37:52.629Z,5.93
2023-02-03T00:39:54.704Z,4.75
2023-02-03T00:41:58.547Z,5.28
2023-02-03T00:44:00.449Z,6.35
2023-02-03T00:46:02.376Z,5.05
2023-02-03T00:48:05.070Z,5.35
2023-02-03T00:50:08.143Z,5.15
2023-02-03T00:52:10.018Z,5.13
2023-02-03T00:54:12.248Z,5.70
2023-02-03T00:56:14.335Z,5.50
2023-02-03T00:58:17.202Z,7.25
2023-02-03T01:00:20.059Z,4.97
2023-02-03T01:02:22.195Z,5.20
2023-02-03T01:04:24.137Z,4.97
2023-02-03T01:06:26.568Z,6.10
2023-02-03T01:08:28.378Z,5.07
2023-02-03T01:10:30.628Z,5.57
2023-02-03T01:12:33.121Z,4.90
2023-02-03T01:14:35.390Z,4.40
2023-02-03T01:16:38.465Z,5.00
2023-02-03T01:18:42.015Z,5.63
2023-02-03T01:20:43.944Z,4.82
2023-02-03T01:22:45.859Z,3.72
2023-02-03T01:24:47.723Z,5.05
2023-02-03T01:26:49.679Z,4.82
2023-02-03T01:28:53.121Z,4.10
2023-02-03T01:30:55.072Z,4.63
2023-02-03T01:32:57.308Z,3.53
2023-02-03T01:34:59.231Z,4.03
2023-02-03T01:37:01.028Z,4.53
2023-02-03T01:39:09.034Z,3.95
2023-02-03T01:41:15.255Z,4.28
2023-02-03T01:43:39.068Z,3.95
2023-02-03T01:45:41.121Z,2.92
2023-02-03T01:47:48.984Z,3.85
2023-02-03T01:50:15.894Z,5.13
2023-02-03T01:52:18.061Z,3.72
2023-02-03T01:54:27.049Z,4.38
2023-02-03T01:56:32.835Z,3.60
2023-02-03T01:58:39.970Z,3.13
2023-02-03T02:00:43.687Z,4.30
2023-02-03T02:02:49.216Z,5.03
2023-02-03T02:04:59.575Z,4.88
2023-02-03T02:07:02.301Z,4.32
2023-02-03T02:09:04.902Z,2.65
2023-02-03T02:11:07.673Z,4.85
2023-02-03T02:13:09.594Z,3.45
2023-02-03T02:15:11.615Z,4.25
2023-02-03T02:17:33.825Z,5.43
2023-02-03T02:19:58.833Z,4.15
2023-02-03T02:22:18.714Z,4.85
2023-02-03T02:24:51.433Z,4.97
2023-02-03T02:27:06.207Z,3.80
2023-02-03T02:29:41.540Z,6.88
2023-02-03T02:32:06.385Z,4.70
2023-02-03T02:34:35.241Z,3.97
2023-02-03T02:36:56.814Z,4.43
2023-02-03T02:39:10.533Z,4.38
2023-02-03T02:41:44.956Z,4.70
2023-02-03T02:44:13.194Z,4.60
2023-02-03T02:46:24.422Z,4.40
2023-02-03T02:48:48.316Z,4.10
2023-02-03T02:50:54.026Z,4.90
2023-02-03T02:52:57.482Z,4.15
2023-02-03T02:55:08.378Z,5.03
2023-02-03T02:57:13.742Z,5.03
2023-02-03T02:59:16.619Z,4.30
2023-02-03T03:01:19.384Z,5.60
2023-02-03T03:03:24.218Z,4.57
2023-02-03T03:05:26.946Z,5.82
2023-02-03T03:07:30.432Z,5.43
2023-02-03T03:09:55.431Z,3.45
2023-02-03T03:12:31.887Z,4.35
2023-02-03T03:14:36.649Z,4.97
2023-02-03T03:16:44.495Z,3.70
2023-02-03T03:19:11.841Z,4.15
2023-02-03T03:21:20.231Z,5.22
2023-02-03T03:23:32.397Z,3.38
2023-02-03T03:25:46.519Z,4.32
2023-02-03T03:27:57.302Z,3.95
2023-02-03T03:30:13.369Z,4.70
2023-02-03T03:32:15.943Z,4.00
2023-02-03T03:34:18.683Z,4.65
2023-02-03T03:36:33.369Z,4.40
2023-02-03T03:38:44.431Z,4.88
2023-02-03T03:41:04.365Z,4.55
2023-02-03T03:43:14.938Z,4.85
2023-02-03T03:45:20.143Z,4.65
2023-02-03T03:47:35.253Z,4.80
2023-02-03T03:49:41.193Z,4.22
2023-02-03T03:51:55.525Z,4.15
2023-02-03T03:54:05.131Z,3.63
2023-02-03T03:56:11.348Z,5.32
2023-02-03T03:58:19.872Z,4.75
2023-02-03T04:00:25.703Z,5.13
2023-02-03T04:02:30.434Z,3.63
2023-02-03T04:04:35.569Z,3.72
2023-02-03T04:06:42.639Z,4.15
2023-02-03T04:08:44.599Z,4.25
2023-02-03T04:10:46.653Z,4.57
2023-02-03T04:12:48.495Z,4.47
2023-02-03T04:14:50.469Z,4.43
2023-02-03T04:16:52.392Z,4.07
2023-02-03T04:18:55.272Z,4.30
2023-02-03T04:20:57.127Z,5.10
2023-02-03T04:22:59.858Z,5.97
2023-02-03T04:25:01.813Z,4.68
2023-02-03T04:27:05.488Z,5.20
2023-02-03T04:29:07.536Z,4.68
2023-02-03T04:31:09.471Z,3.25
2023-02-03T04:33:11.407Z,5.40
2023-02-03T04:35:14.851Z,5.63
2023-02-03T04:37:16.757Z,5.93
2023-02-03T04:39:18.734Z,5.30
2023-02-03T04:41:20.662Z,7.53
2023-02-03T04:43:22.596Z,4.43
2023-02-03T04:45:24.532Z,4.82
2023-02-03T04:47:26.366Z,4.38
2023-02-03T04:49:28.241Z,4.47
2023-02-03T04:51:30.392Z,3.80
2023-02-03T04:53:32.810Z,4.90
2023-02-03T04:55:35.631Z,4.10
2023-02-03T04:57:37.507Z,5.15
2023-02-03T04:59:39.452Z,5.53
2023-02-03T05:01:41.300Z,5.88
2023-02-03T05:03:43.319Z,4.65
2023-02-03T05:05:45.296Z,4.32
2023-02-03T05:07:47.392Z,5.30
2023-02-03T05:09:49.296Z,4.20
2023-02-03T05:11:51.304Z,6.00
2023-02-03T05:13:54.633Z,4.60
2023-02-03T05:15:56.450Z,5.82
2023-02-03T05:17:58.420Z,7.60
2023-02-03T05:20:00.253Z,5.03
2023-02-03T05:22:02.191Z,5.32
2023-02-03T05:24:08.138Z,6.72
2023-02-03T05:26:10.380Z,5.85
2023-02-03T05:28:12.479Z,6.00
2023-02-03T05:30:14.521Z,6.22
2023-02-03T05:32:16.441Z,5.93
2023-02-03T05:34:18.308Z,7.90
2023-02-03T05:36:21.483Z,6.85
2023-02-03T05:38:25.673Z,6.35
2023-02-03T05:40:47.065Z,6.13
2023-02-03T05:42:49.590Z,7.60
2023-02-03T05:44:51.548Z,6.22
2023-02-03T05:46:56.896Z,6.10
2023-02-03T05:48:58.800Z,6.45
2023-02-03T05:51:00.697Z,7.22
2023-02-03T05:53:04.892Z,7.55
2023-02-03T05:55:07.103Z,5.80
2023-02-03T05:57:08.929Z,7.07
2023-02-03T05:59:10.978Z,6.13
2023-02-03T06:01:12.814Z,5.90
2023-02-03T06:03:14.744Z,5.65
2023-02-03T06:05:16.726Z,7.60
2023-02-03T06:07:24.317Z,6.45
2023-02-03T06:09:26.224Z,9.68
2023-02-03T06:11:28.647Z,6.75
2023-02-03T06:13:30.526Z,5.68
2023-02-03T06:15:32.488Z,7.13
2023-02-03T06:17:36.203Z,6.72
2023-02-03T06:19:38.334Z,8.02
2023-02-03T06:21:40.256Z,7.05
2023-02-03T06:23:43.112Z,7.65
2023-02-03T06:25:49.751Z,8.88
2023-02-03T06:27:52.107Z,8.20
2023-02-03T06:29:54.096Z,8.00
2023-02-03T06:31:56.104Z,8.65
2023-02-03T06:33:59.663Z,7.78
2023-02-03T06:36:01.626Z,10.95
2023-02-03T06:38:03.453Z,10.90
2023-02-03T06:40:06.451Z,10.05
2023-02-03T06:42:08.484Z,10.30
2023-02-03T06:44:10.416Z,8.77
2023-02-03T06:46:12.773Z,7.60
2023-02-03T06:48:15.046Z,7.93
2023-02-03T06:50:17.257Z,9.40
2023-02-03T06:52:19.454Z,8.55
2023-02-03T06:54:22.796Z,8.70
2023-02-03T06:56:24.943Z,8.68
2023-02-03T06:58:26.806Z,8.02
2023-02-03T07:00:29.021Z,10.00
2023-02-03T07:02:31.286Z,9.45
2023-02-03T07:04:33.328Z,7.60
2023-02-03T07:06:35.364Z,7.28
2023-02-03T07:08:37.281Z,6.88
2023-02-03T07:10:39.131Z,6.38
2023-02-03T07:12:41.069Z,8.30
2023-02-03T07:14:42.935Z,7.60
2023-02-03T07:16:44.898Z,7.78
2023-02-03T07:18:48.239Z,9.52
2023-02-03T07:20:51.796Z,6.43
2023-02-03T07:22:55.459Z,8.63
2023-02-03T07:24:57.362Z,6.53
2023-02-03T07:26:59.292Z,7.85
2023-02-03T07:29:01.264Z,7.28
2023-02-03T07:31:05.027Z,7.35
2023-02-03T07:33:08.153Z,6.22
2023-02-03T07:35:10.099Z,8.23
2023-02-03T07:37:12.032Z,7.93
2023-02-03T07:39:14.032Z,6.25
2023-02-03T07:41:18.252Z,7.38
2023-02-03T07:43:20.816Z,9.05
2023-02-03T07:45:24.996Z,6.20
2023-02-03T07:47:27.876Z,6.43
2023-02-03T07:49:29.854Z,7.05
2023-02-03T07:51:32.163Z,7.50
2023-02-03T07:53:35.576Z,7.03
2023-02-03T07:55:40.944Z,7.57
2023-02-03T07:57:43.802Z,5.25
2023-02-03T07:59:47.106Z,7.55
2023-02-03T08:01:49.169Z,10.85
2023-02-03T08:03:55.131Z,6.88
2023-02-03T08:05:57.225Z,12.73
2023-02-03T08:07:59.682Z,8.35
2023-02-03T08:10:01.817Z,7.70
2023-02-03T08:12:04.061Z,7.07
2023-02-03T08:14:06.000Z,7.07
2023-02-03T08:16:07.968Z,8.95
2023-02-03T08:18:10.115Z,8.68
2023-02-03T08:20:14.905Z,8.27
2023-02-03T08:22:16.902Z,7.97
2023-02-03T08:24:21.172Z,7.93
2023-02-03T08:26:23.263Z,6.68
2023-02-03T08:28:26.338Z,6.20
2023-02-03T08:30:28.489Z,6.28
2023-02-03T08:32:30.759Z,5.50
2023-02-03T08:36:54.674Z,7.57
2023-02-03T08:39:01.317Z,7.25
2023-02-03T08:41:09.148Z,7.82
2023-02-03T08:43:11.523Z,6.32
2023-02-03T08:45:13.542Z,9.25
2023-02-03T08:47:16.850Z,7.80
2023-02-03T08:49:19.801Z,11.20
2023-02-03T08:51:25.015Z,9.90
2023-02-03T08:53:28.346Z,7.90
2023-02-03T08:55:30.408Z,9.20
2023-02-03T08:57:37.222Z,7.65
2023-02-03T08:59:42.944Z,6.55
2023-02-03T09:01:46.189Z,5.75
2023-02-03T09:03:48.299Z,6.15
2023-02-03T09:05:50.289Z,6.22
2023-02-03T09:07:53.489Z,7.25
2023-02-03T09:09:56.218Z,7.00
2023-02-03T09:12:02.633Z,6.90
2023-02-03T09:14:06.067Z,4.88
2023-02-03T09:16:10.250Z,6.03
2023-02-03T09:18:14.280Z,6.03
2023-02-03T09:20:16.469Z,7.32
2023-02-03T09:22:18.471Z,6.22
2023-02-03T09:24:20.694Z,4.28
2023-02-03T09:26:23.581Z,4.97
2023-02-03T09:28:25.973Z,3.75
2023-02-03T09:30:28.322Z,6.95
2023-02-03T09:32:30.601Z,7.13
2023-02-03T09:34:33.564Z,5.15
2023-02-03T09:36:36.159Z,4.13
2023-02-03T09:38:38.789Z,7.60
2023-02-03T09:40:42.838Z,6.50
2023-02-03T09:43:14.063Z,4.80
2023-02-03T09:45:26.581Z,6.00
2023-02-03T09:47:32.853Z,4.68
2023-02-03T09:49:47.827Z,4.32
2023-02-03T09:51:56.337Z,5.57
2023-02-03T09:54:07.455Z,4.57
2023-02-03T09:56:30.999Z,4.32
2023-02-03T09:58:36.291Z,3.70
2023-02-03T10:00:49.138Z,4.18
2023-02-03T10:03:14.338Z,4.47
2023-02-03T10:05:26.705Z,3.95
2023-02-03T10:08:01.956Z,3.65
2023-02-03T10:10:19.272Z,4.47
2023-02-03T10:12:49.738Z,4.47
2023-02-03T10:15:09.439Z,4.47
2023-02-03T10:17:41.912Z,3.58
2023-02-03T10:20:17.851Z,2.35
2023-02-03T10:22:26.160Z,2.95
2023-02-03T10:24:40.862Z,4.32
2023-02-03T10:26:43.054Z,6.72
2023-02-03T10:29:07.217Z,4.15
2023-02-03T10:31:19.758Z,5.38
2023-02-03T10:33:32.602Z,3.70
2023-02-03T10:35:51.055Z,8.07
2023-02-03T10:37:58.349Z,5.45
2023-02-03T10:40:04.477Z,7.13
2023-02-03T10:42:07.502Z,5.50
2023-02-03T10:44:13.605Z,4.72
2023-02-03T10:46:19.476Z,4.00
2023-02-03T10:48:23.286Z,5.75
2023-02-03T10:50:32.044Z,5.82
2023-02-03T10:52:36.254Z,6.22
2023-02-03T10:54:39.224Z,6.20
2023-02-03T10:56:41.513Z,5.90
2023-02-03T10:58:55.843Z,16.38
2023-02-03T11:01:07.171Z,16.73
2023-02-03T11:03:25.501Z,12.77
2023-02-03T11:05:28.673Z,11.82
2023-02-03T11:07:30.897Z,7.75
2023-02-03T11:09:38.880Z,8.35
2023-02-03T11:11:42.170Z,10.02
2023-02-03T11:13:46.107Z,11.55
2023-02-03T11:15:58.768Z,6.38
2023-02-03T11:18:00.903Z,12.60
2023-02-03T11:20:13.913Z,11.40
2023-02-03T11:22:37.391Z,8.52
2023-02-03T11:24:42.063Z,9.50
2023-02-03T11:26:49.479Z,8.15
2023-02-03T11:28:57.405Z,11.50
2023-02-03T11:31:01.803Z,10.82
2023-02-03T11:33:20.011Z,12.70
2023-02-03T11:35:30.130Z,9.68
2023-02-03T11:37:39.207Z,5.40
2023-02-03T11:39:41.683Z,4.25
2023-02-03T11:41:43.894Z,4.70
2023-02-03T11:43:48.705Z,5.90
2023-02-03T11:45:59.842Z,5.85
2023-02-03T11:48:11.118Z,5.93
2023-02-03T11:50:44.149Z,4.65
2023-02-03T11:52:59.019Z,6.80
2023-02-03T11:55:15.099Z,9.00
2023-02-03T11:57:53.124Z,8.57
2023-02-03T12:00:13.423Z,7.10
2023-02-03T12:02:46.331Z,6.38
2023-02-03T12:04:58.195Z,7.20
2023-02-03T12:07:31.539Z,8.38
2023-02-03T12:09:56.831Z,6.97
2023-02-03T12:12:18.402Z,10.73
2023-02-03T12:15:06.581Z,13.52
2023-02-03T12:17:25.475Z,8.07
2023-02-03T12:19:48.539Z,7.57
2023-02-03T12:22:00.964Z,6.60
2023-02-03T12:24:25.784Z,8.10
2023-02-03T12:26:47.429Z,11.07
2023-02-03T12:28:51.403Z,5.55
2023-02-03T12:31:00.709Z,7.57
2023-02-03T12:33:16.546Z,7.95
2023-02-03T12:35:27.060Z,8.38
2023-02-03T12:37:34.636Z,8.07
2023-02-03T12:39:48.342Z,14.48
2023-02-03T12:42:01.045Z,8.57
2023-02-03T12:44:17.870Z,11.75
2023-02-03T12:46:45.374Z,10.80
2023-02-03T12:49:21.544Z,8.00
2023-02-03T12:51:39.566Z,10.30
2023-02-03T12:53:49.207Z,10.85
2023-02-03T12:56:01.288Z,9.30
2023-02-03T12:58:11.976Z,10.93
2023-02-03T13:00:21.976Z,8.88
2023-02-03T13:02:29.921Z,6.63
2023-02-03T13:04:36.335Z,9.98
2023-02-03T13:06:52.979Z,7.60
2023-02-03T13:09:09.162Z,8.18
2023-02-03T13:11:29.212Z,12.18
2023-02-03T13:13:40.200Z,10.23
2023-02-03T13:15:50.802Z,9.90
2023-02-03T13:18:11.632Z,10.68
2023-02-03T13:20:23.980Z,10.23
2023-02-03T13:22:26.262Z,10.02
2023-02-03T13:24:34.168Z,10.32
2023-02-03T13:26:55.573Z,7.47
2023-02-03T13:29:22.685Z,7.20
2023-02-03T13:31:27.854Z,6.90
2023-02-03T13:33:48.958Z,7.80
2023-02-03T13:35:59.893Z,7.50
2023-02-03T13:38:53.170Z,8.33
2023-02-03T13:41:24.853Z,10.75
2023-02-03T13:43:38.722Z,9.85
2023-02-03T13:45:45.455Z,8.25
2023-02-03T13:47:53.416Z,12.90
2023-02-03T13:50:02.970Z,11.40
2023-02-03T13:52:05.282Z,12.90
2023-02-03T13:54:14.826Z,11.52
2023-02-03T13:56:25.648Z,9.27
2023-02-03T13:58:31.296Z,11.57
2023-02-03T14:00:45.246Z,9.32
2023-02-03T14:02:54.799Z,9.95
2023-02-03T14:04:59.938Z,9.35
2023-02-03T14:07:03.901Z,13.05
2023-02-03T14:09:36.103Z,11.68
2023-02-03T14:14:07.443Z,19.35
2023-02-03T14:16:39.629Z,16.15
2023-02-03T14:20:52.920Z,17.77
2023-02-03T14:23:06.545Z,14.55
2023-02-03T14:25:09.763Z,16.52
2023-02-03T14:27:25.288Z,11.80
2023-02-03T14:29:38.009Z,9.55
2023-02-03T14:32:05.398Z,11.50
2023-02-03T14:34:19.224Z,13.65
2023-02-03T14:36:41.836Z,11.32
2023-02-03T14:38:43.994Z,12.68
2023-02-03T14:40:54.995Z,10.82
2023-02-03T14:43:38.071Z,11.90
2023-02-03T14:45:57.828Z,12.93
2023-02-03T14:48:14.660Z,10.57
2023-02-03T14:50:23.515Z,10.05
2023-02-03T14:53:07.175Z,13.43
2023-02-03T14:55:36.071Z,11.45
2023-02-03T14:57:45.616Z,12.27
2023-02-03T15:00:27.740Z,13.05
2023-02-03T15:02:32.708Z,10.77
2023-02-03T15:04:35.340Z,10.93
2023-02-03T15:06:43.300Z,11.65
2023-02-03T15:08:48.764Z,11.68
2023-02-03T15:10:56.665Z,11.18
2023-02-03T15:12:59.206Z,10.23
2023-02-03T15:15:29.356Z,11.63
2023-02-03T15:17:32.497Z,12.95
2023-02-03T15:19:38.605Z,11.05
2023-02-03T15:21:42.647Z,11.98
2023-02-03T15:23:52.097Z,13.20
2023-02-03T15:25:59.274Z,11.13
2023-02-03T15:28:20.762Z,10.48
2023-02-03T15:30:28.485Z,11.73
2023-02-03T15:32:40.937Z,10.13
2023-02-03T15:34:51.406Z,10.50
2023-02-03T15:36:58.001Z,10.13
2023-02-03T15:39:11.824Z,9.68
2023-02-03T15:41:23.287Z,11.13
2023-02-03T15:43:34.140Z,11.95
2023-02-03T15:45:54.776Z,11.57
2023-02-03T15:48:22.188Z,9.13
2023-02-03T15:50:47.864Z,11.75
2023-02-03T15:52:55.661Z,9.98
2023-02-03T15:55:21.623Z,9.98
2023-02-03T15:57:26.137Z,11.15
2023-02-03T15:59:31.220Z,8.70
2023-02-03T16:01:35.811Z,9.68
2023-02-03T16:03:44.867Z,8.98
2023-02-03T16:05:49.876Z,9.60
2023-02-03T16:07:52.689Z,11.38
2023-02-03T16:09:57.214Z,11.15
2023-02-03T16:12:22.354Z,9.82
2023-02-03T16:14:36.764Z,10.25
2023-02-03T16:17:04.937Z,10.00
2023-02-03T16:19:22.648Z,8.80
2023-02-03T16:21:35.123Z,11.02
2023-02-03T16:23:49.871Z,9.75
2023-02-03T16:26:15.746Z,9.10
2023-02-03T16:28:37.237Z,10.45
2023-02-03T16:30:58.198Z,9.02
2023-02-03T16:33:27.708Z,10.05
2023-02-03T16:35:49.450Z,9.90
2023-02-03T16:38:11.659Z,12.00
2023-02-03T16:40:35.557Z,9.70
2023-02-03T16:42:58.685Z,8.95
2023-02-03T16:45:19.282Z,8.98
2023-02-03T16:47:46.266Z,8.82
2023-02-03T16:50:09.955Z,10.18
2023-02-03T16:52:16.443Z,10.23
2023-02-03T16:54:19.736Z,11.05
2023-02-03T16:56:21.827Z,10.18
2023-02-03T16:58:24.389Z,11.43
2023-02-03T17:00:27.613Z,11.48
2023-02-03T17:02:31.101Z,10.15
2023-02-03T17:04:38.413Z,11.30
2023-02-03T17:06:41.710Z,12.45
2023-02-03T17:08:43.872Z,10.98
2023-02-03T17:10:48.725Z,12.75
2023-02-03T17:12:53.345Z,11.88
2023-02-03T17:14:58.598Z,10.07
2023-02-03T17:17:02.170Z,4.32
2023-02-03T17:19:04.869Z,4.80
2023-02-03T17:21:09.891Z,11.55
2023-02-03T17:23:16.896Z,8.75
2023-02-03T17:25:21.803Z,9.05
2023-02-03T17:27:26.591Z,7.60
2023-02-03T17:29:29.680Z,9.75
2023-02-03T17:31:33.027Z,7.35
2023-02-03T17:33:35.411Z,7.82
2023-02-03T17:35:45.888Z,9.77
2023-02-03T17:37:48.185Z,10.68
2023-02-03T17:54:02.415Z,8.52
2023-02-03T17:56:14.081Z,9.63
2023-02-03T17:58:18.693Z,7.75
2023-02-03T18:00:22.900Z,10.15
2023-02-03T18:02:25.219Z,8.13
2023-02-03T18:04:27.753Z,8.65
2023-02-03T18:06:32.045Z,8.35
2023-02-03T18:08:44.021Z,10.60
2023-02-03T18:10:47.578Z,9.45
2023-02-03T18:12:49.708Z,7.93
2023-02-03T18:14:51.964Z,8.68
2023-02-03T18:16:55.865Z,9.27
2023-02-03T18:19:04.347Z,8.85
2023-02-03T18:21:07.057Z,7.60
2023-02-03T18:23:11.298Z,8.07
2023-02-03T18:25:17.126Z,10.32
2023-02-03T18:27:20.031Z,7.90
2023-02-03T18:29:25.059Z,7.03
2023-02-03T18:31:28.132Z,7.07
2023-02-03T18:33:31.190Z,7.93
2023-02-03T18:35:35.077Z,6.95
2023-02-03T18:37:43.264Z,5.15
2023-02-03T18:39:51.603Z,5.40
2023-02-03T18:41:54.894Z,5.97
2023-02-03T18:43:57.757Z,6.28
2023-02-03T18:46:05.864Z,8.70
2023-02-03T18:48:10.105Z,4.10
2023-02-03T18:50:12.802Z,11.32
2023-02-03T18:52:18.536Z,11.02
2023-02-03T18:54:23.786Z,11.05
2023-02-03T18:56:35.656Z,13.82
2023-02-03T18:58:39.846Z,13.48
2023-02-03T19:00:44.374Z,14.98
2023-02-03T19:02:55.036Z,14.40
2023-02-03T19:04:57.898Z,15.10
2023-02-03T19:07:02.912Z,11.13
2023-02-03T19:09:06.210Z,10.88
2023-02-03T19:11:12.518Z,11.75
2023-02-03T19:13:15.520Z,11.23
2023-02-03T19:15:20.134Z,9.73
2023-02-03T19:17:24.384Z,11.95
2023-02-03T19:19:27.960Z,14.38
2023-02-03T19:21:30.459Z,13.18
2023-02-03T19:23:33.693Z,13.48
2023-02-03T19:25:39.132Z,13.18
2023-02-03T19:27:43.373Z,14.02
2023-02-03T19:29:47.353Z,13.40
2023-02-03T19:31:53.422Z,13.48
2023-02-03T19:34:03.312Z,13.32
2023-02-03T19:36:07.554Z,12.07
2023-02-03T19:38:11.864Z,10.98
2023-02-03T19:40:18.293Z,12.63
2023-02-03T19:42:22.103Z,11.88
2023-02-03T19:44:26.122Z,15.98
2023-02-03T19:46:32.762Z,14.23
2023-02-03T19:48:36.343Z,17.92
2023-02-03T19:50:41.565Z,17.20
2023-02-03T19:52:45.139Z,16.30
2023-02-03T19:54:49.264Z,15.93
2023-02-03T19:56:54.185Z,16.75
2023-02-03T19:58:57.192Z,20.75
2023-02-03T20:01:03.463Z,20.17
2023-02-03T20:03:09.704Z,21.52
2023-02-03T20:05:16.143Z,21.55
2023-02-03T20:07:18.965Z,20.45
2023-02-03T20:09:22.171Z,18.80
2023-02-03T20:11:26.108Z,17.45
2023-02-03T20:13:29.501Z,16.77
2023-02-03T20:15:32.656Z,15.18
2023-02-03T20:17:45.687Z,16.38
2023-02-03T20:19:49.971Z,13.75
2023-02-03T20:21:55.233Z,14.65
2023-02-03T20:23:58.322Z,15.23
2023-02-03T20:26:01.277Z,15.57
2023-02-03T20:28:08.057Z,13.77
2023-02-03T20:30:13.098Z,14.20
2023-02-03T20:32:18.642Z,14.00
2023-02-03T20:34:21.474Z,15.95
2023-02-03T20:36:25.082Z,14.68
2023-02-03T20:38:30.252Z,15.13
2023-02-03T20:40:33.424Z,13.38
2023-02-03T20:42:36.371Z,16.00
2023-02-03T20:44:41.581Z,16.45
2023-02-03T20:46:46.458Z,16.27
2023-02-03T20:48:49.093Z,16.00
2023-02-03T20:50:54.328Z,16.40
2023-02-03T20:53:00.272Z,15.65
2023-02-03T20:55:13.236Z,20.52
2023-02-03T20:57:18.282Z,15.57
2023-02-03T20:59:22.359Z,19.02
2023-02-03T21:01:29.811Z,17.13
2023-02-03T21:03:53.301Z,13.60
2023-02-03T21:05:57.441Z,14.80
2023-02-03T21:08:02.849Z,18.15
2023-02-03T21:10:25.207Z,16.00
2023-02-03T21:12:31.014Z,17.58
2023-02-03T21:14:43.241Z,17.15
2023-02-03T21:16:47.887Z,17.70
2023-02-03T21:18:54.911Z,16.17
2023-02-03T21:20:58.351Z,14.35
2023-02-03T21:23:02.381Z,16.77
2023-02-03T21:25:08.262Z,17.50
2023-02-03T21:27:34.596Z,15.55
2023-02-03T21:29:37.228Z,17.20
2023-02-03T21:31:40.778Z,13.95
2023-02-03T21:33:44.072Z,17.98
2023-02-03T21:35:47.657Z,18.63
2023-02-03T21:38:02.085Z,14.52
2023-02-03T21:40:27.067Z,17.10
2023-02-03T21:42:42.808Z,16.42
2023-02-03T21:44:46.436Z,16.48
2023-02-03T21:46:49.090Z,17.25
2023-02-03T21:48:53.713Z,17.30
2023-02-03T21:51:16.907Z,16.10
2023-02-03T21:53:36.083Z,17.70
2023-02-03T21:55:41.141Z,16.10
2023-02-03T21:57:43.713Z,15.20
2023-02-03T21:59:50.289Z,14.75
2023-02-03T22:01:58.644Z,14.98
2023-02-03T22:04:02.602Z,21.50
2023-02-03T22:06:25.805Z,15.80
2023-02-03T22:08:34.255Z,14.52
2023-02-03T22:10:36.361Z,13.95
2023-02-03T22:12:38.464Z,13.52
2023-02-03T22:14:40.611Z,16.02
2023-02-03T22:16:43.784Z,13.02
2023-02-03T22:18:47.604Z,14.32
2023-02-03T22:20:49.654Z,16.65
2023-02-03T22:22:51.692Z,14.15
2023-02-03T22:24:53.821Z,16.65
2023-02-03T22:27:00.305Z,14.05
2023-02-03T22:29:02.811Z,14.98
2023-02-03T22:31:05.411Z,14.20
2023-02-03T22:33:07.905Z,13.50
2023-02-03T22:35:10.028Z,15.43
2023-02-03T22:37:11.969Z,14.05
2023-02-03T22:39:14.046Z,13.25
2023-02-03T22:41:16.022Z,13.25
2023-02-03T22:43:17.927Z,13.75
2023-02-03T22:45:21.794Z,14.75
2023-02-03T22:47:24.714Z,12.30
2023-02-03T22:49:26.593Z,13.93
2023-02-03T22:51:28.515Z,12.10
2023-02-03T22:53:30.519Z,11.82
2023-02-03T22:55:32.828Z,12.93
2023-02-03T22:57:35.232Z,10.95
2023-02-03T22:59:37.179Z,11.13
2023-02-03T23:01:39.071Z,11.23
2023-02-03T23:03:41.019Z,13.20
2023-02-03T23:05:43.012Z,9.68
2023-02-03T23:07:46.799Z,9.02
2023-02-03T23:09:48.773Z,10.13
2023-02-03T23:11:51.738Z,10.90
2023-02-03T23:13:55.695Z,13.20
2023-02-03T23:15:57.811Z,8.20
2023-02-03T23:17:59.801Z,9.00
2023-02-03T23:20:01.872Z,12.10
2023-02-03T23:22:03.904Z,15.77
2023-02-03T23:24:07.426Z,20.63
2023-02-03T23:26:09.423Z,20.67
2023-02-03T23:28:11.423Z,18.33
2023-02-03T23:30:14.566Z,10.48
2023-02-03T23:32:16.514Z,10.35
2023-02-03T23:34:37.233Z,10.23
2023-02-03T23:36:39.250Z,9.68
2023-02-03T23:38:41.164Z,8.80
2023-02-03T23:40:43.479Z,10.00
2023-02-03T23:42:45.560Z,9.80
2023-02-03T23:44:48.445Z,10.07
2023-02-03T23:46:50.747Z,12.45
2023-02-03T23:48:52.880Z,9.10
2023-02-03T23:50:54.844Z,13.35
2023-02-03T23:52:56.739Z,8.35
2023-02-03T23:54:58.638Z,8.88
2023-02-03T23:57:00.535Z,8.93
2023-02-03T23:59:02.482Z,9.55
